createdAt,value
2019-05-15T00:01:22.757Z,6.23
2019-05-15T00:03:53.338Z,6.21
2019-05-15T00:06:23.976Z,6.25
2019-05-15T00:08:54.661Z,6.22
2019-05-15T00:11:25.423Z,6.17
2019-05-15T00:13:55.987Z,6.18
2019-05-15T00:16:28.833Z,6.14
2019-05-15T00:18:59.248Z,6.15
2019-05-15T00:21:29.947Z,6.11
2019-05-15T00:24:00.493Z,6.21
2019-05-15T00:26:31.057Z,6.20
2019-05-15T00:29:12.015Z,6.12
2019-05-15T00:31:33.844Z,6.11
2019-05-15T00:34:04.835Z,6.10
2019-05-15T00:36:35.367Z,6.10
2019-05-15T00:39:08.442Z,6.10
2019-05-15T00:41:50.895Z,6.10
2019-05-15T00:44:12.006Z,6.09
2019-05-15T00:46:42.729Z,6.07
2019-05-15T00:49:13.363Z,6.12
2019-05-15T00:51:44.388Z,6.09
2019-05-15T00:54:14.958Z,6.04
2019-05-15T00:56:45.609Z,6.04
2019-05-15T00:59:24.108Z,5.99
2019-05-15T01:01:48.837Z,6.01
2019-05-15T01:04:19.677Z,6.02
2019-05-15T01:06:52.675Z,5.93
2019-05-15T01:09:22.756Z,5.89
2019-05-15T01:11:53.461Z,5.86
2019-05-15T01:14:23.928Z,5.84
2019-05-15T01:16:54.511Z,5.87
2019-05-15T01:19:25.132Z,5.86
2019-05-15T01:21:55.943Z,5.90
2019-05-15T01:24:28.318Z,5.94
2019-05-15T01:26:59.096Z,5.87
2019-05-15T01:29:41.111Z,5.82
2019-05-15T01:32:02.286Z,5.76
2019-05-15T01:34:32.839Z,5.72
2019-05-15T01:37:03.408Z,5.67
2019-05-15T01:39:34.058Z,5.70
2019-05-15T01:42:04.707Z,5.65
2019-05-15T01:44:35.337Z,5.64
2019-05-15T01:47:08.304Z,5.62
2019-05-15T01:49:38.496Z,5.59
2019-05-15T01:52:09.171Z,5.50
2019-05-15T01:54:39.777Z,5.56
2019-05-15T01:57:10.294Z,5.51
2019-05-15T01:59:53.940Z,5.58
2019-05-15T02:02:13.608Z,5.54
2019-05-15T02:04:44.316Z,5.49
2019-05-15T02:07:14.944Z,5.47
2019-05-15T02:09:45.646Z,5.43
2019-05-15T02:12:18.985Z,5.39
2019-05-15T02:14:48.908Z,5.37
2019-05-15T02:17:19.535Z,5.34
2019-05-15T02:19:50.246Z,5.34
2019-05-15T02:22:20.853Z,5.33
2019-05-15T02:24:51.352Z,5.35
2019-05-15T02:27:21.842Z,5.38
2019-05-15T02:29:52.411Z,5.40
2019-05-15T02:32:23.079Z,5.39
2019-05-15T02:34:53.793Z,5.35
2019-05-15T02:37:24.498Z,5.33
2019-05-15T02:39:55.176Z,5.33
2019-05-15T02:42:28.723Z,5.32
2019-05-15T02:44:58.687Z,5.36
2019-05-15T02:47:29.536Z,5.38
2019-05-15T02:50:00.194Z,5.25
2019-05-15T02:52:30.779Z,5.22
2019-05-15T02:55:01.546Z,5.23
2019-05-15T02:57:32.176Z,5.22
2019-05-15T03:00:02.726Z,5.18
2019-05-15T03:02:33.389Z,5.18
2019-05-15T03:05:04.605Z,5.18
2019-05-15T03:07:35.282Z,5.17
2019-05-15T03:10:09.161Z,5.16
2019-05-15T03:12:40.819Z,5.16
2019-05-15T03:15:12.098Z,5.18
2019-05-15T03:17:42.705Z,5.12
2019-05-15T03:20:13.758Z,5.13
2019-05-15T03:22:44.637Z,5.12
2019-05-15T03:25:18.961Z,5.12
2019-05-15T03:27:49.981Z,5.13
2019-05-15T03:30:22.103Z,5.14
2019-05-15T03:33:00.801Z,5.14
2019-05-15T03:35:25.345Z,5.11
2019-05-15T03:37:55.854Z,5.17
2019-05-15T03:40:29.550Z,5.15
2019-05-15T03:42:59.467Z,5.16
2019-05-15T03:45:30.236Z,5.13
2019-05-15T03:48:00.838Z,5.18
2019-05-15T03:50:31.437Z,5.11
2019-05-15T03:53:02.048Z,5.19
2019-05-15T03:55:32.847Z,5.12
2019-05-15T03:58:03.479Z,5.18
2019-05-15T04:00:34.213Z,5.15
2019-05-15T04:03:05.037Z,5.18
2019-05-15T04:05:38.658Z,5.17
2019-05-15T04:08:10.990Z,5.18
2019-05-15T04:10:40.794Z,5.18
2019-05-15T04:13:11.499Z,5.17
2019-05-15T04:15:42.183Z,5.22
2019-05-15T04:18:12.842Z,5.22
2019-05-15T04:20:43.466Z,5.20
2019-05-15T04:23:19.059Z,5.16
2019-05-15T04:25:53.452Z,5.19
2019-05-15T04:28:24.221Z,5.18
2019-05-15T04:30:54.951Z,5.24
2019-05-15T04:33:28.982Z,5.18
2019-05-15T04:35:58.932Z,5.21
2019-05-15T04:38:29.897Z,5.23
2019-05-15T04:41:01.152Z,5.21
2019-05-15T04:43:39.601Z,5.20
2019-05-15T04:46:04.240Z,5.21
2019-05-15T04:48:35.576Z,5.21
2019-05-15T04:51:09.464Z,5.26
2019-05-15T04:53:39.600Z,5.22
2019-05-15T04:56:11.008Z,5.24
2019-05-15T04:58:42.174Z,5.26
2019-05-15T05:01:13.298Z,5.26
2019-05-15T05:03:44.728Z,5.26
2019-05-15T05:06:18.767Z,5.27
2019-05-15T05:08:50.828Z,5.26
2019-05-15T05:11:24.043Z,5.26
2019-05-15T05:13:54.717Z,5.27
2019-05-15T05:16:25.866Z,5.30
2019-05-15T05:18:59.241Z,5.30
2019-05-15T05:21:28.986Z,5.34
2019-05-15T05:23:59.681Z,5.34
2019-05-15T05:26:30.317Z,5.35
2019-05-15T05:29:01.510Z,5.36
2019-05-15T05:31:32.467Z,5.41
2019-05-15T05:34:03.689Z,5.39
2019-05-15T05:36:35.273Z,5.35
2019-05-15T05:39:09.586Z,5.40
2019-05-15T05:41:41.088Z,5.45
2019-05-15T05:44:12.179Z,5.43
2019-05-15T05:46:43.364Z,5.50
2019-05-15T05:49:14.580Z,5.57
2019-05-15T05:51:48.116Z,5.60
2019-05-15T05:54:18.867Z,5.66
2019-05-15T05:56:50.146Z,5.72
2019-05-15T05:59:21.126Z,5.78
2019-05-15T06:01:52.407Z,5.82
2019-05-15T06:04:23.257Z,5.79
2019-05-15T06:07:06.033Z,5.76
2019-05-15T06:09:27.799Z,5.74
2019-05-15T06:11:59.013Z,5.80
2019-05-15T06:14:30.234Z,5.85
2019-05-15T06:17:02.172Z,5.72
2019-05-15T06:19:33.233Z,5.66
2019-05-15T06:22:04.523Z,5.72
2019-05-15T06:24:37.802Z,5.72
2019-05-15T06:27:08.336Z,5.81
2019-05-15T06:29:39.427Z,5.84
2019-05-15T06:32:29.798Z,5.85
2019-05-15T06:35:00.472Z,5.91
2019-05-15T06:37:31.528Z,5.98
2019-05-15T06:40:02.226Z,6.06
2019-05-15T06:42:33.635Z,6.16
2019-05-15T06:45:04.721Z,6.18
2019-05-15T06:47:35.723Z,6.35
2019-05-15T06:50:08.646Z,6.30
2019-05-15T06:52:39.634Z,6.37
2019-05-15T06:55:11.047Z,6.52
2019-05-15T06:57:41.869Z,6.51
2019-05-15T07:00:12.689Z,6.43
2019-05-15T07:02:43.446Z,6.38
2019-05-15T07:05:14.638Z,6.35
2019-05-15T07:07:48.705Z,6.25
2019-05-15T07:10:19.436Z,6.23
2019-05-15T07:12:51.491Z,6.16
2019-05-15T07:15:22.552Z,6.18
2019-05-15T07:20:38.872Z,6.24
2019-05-15T07:23:09.315Z,6.19
2019-05-15T07:25:40.543Z,6.35
2019-05-15T07:28:11.189Z,6.31
2019-05-15T07:30:41.922Z,6.33
2019-05-15T07:33:12.574Z,6.33
2019-05-15T07:35:43.247Z,6.29
2019-05-15T07:38:13.909Z,6.36
2019-05-15T07:40:44.662Z,6.41
2019-05-15T07:43:15.266Z,6.39
2019-05-15T07:45:52.428Z,6.41
2019-05-15T07:48:19.036Z,6.40
2019-05-15T07:50:50.083Z,6.50
2019-05-15T07:53:20.687Z,6.52
2019-05-15T07:55:51.554Z,6.58
2019-05-15T07:58:22.261Z,6.62
2019-05-15T08:00:53.106Z,6.62
2019-05-15T08:03:23.762Z,6.73
2019-05-15T08:05:59.276Z,6.71
2019-05-15T08:08:28.975Z,6.76
2019-05-15T08:10:59.127Z,6.79
2019-05-15T08:13:29.747Z,6.67
2019-05-15T08:16:00.465Z,6.85
2019-05-15T08:18:31.180Z,6.91
2019-05-15T08:21:01.746Z,7.05
2019-05-15T08:23:32.570Z,7.07
2019-05-15T08:26:03.108Z,6.96
2019-05-15T08:28:33.829Z,7.05
2019-05-15T08:31:06.651Z,7.10
2019-05-15T08:33:38.853Z,7.26
2019-05-15T08:36:09.508Z,7.23
2019-05-15T08:38:40.207Z,7.34
2019-05-15T08:41:11.702Z,7.40
2019-05-15T08:43:42.547Z,7.35
2019-05-15T08:46:13.418Z,7.34
2019-05-15T08:48:44.067Z,7.38
2019-05-15T08:51:14.867Z,7.43
2019-05-15T08:53:45.532Z,7.37
2019-05-15T08:56:19.147Z,7.22
2019-05-15T08:58:48.773Z,7.14
2019-05-15T09:01:19.637Z,7.12
2019-05-15T09:03:50.360Z,7.16
2019-05-15T09:06:23.091Z,7.03
2019-05-15T09:08:53.851Z,7.01
2019-05-15T09:11:24.380Z,7.06
2019-05-15T09:13:54.941Z,6.96
2019-05-15T09:16:27.943Z,6.93
2019-05-15T09:18:59.143Z,6.93
2019-05-15T09:21:30.080Z,6.99
2019-05-15T09:24:00.748Z,7.08
2019-05-15T09:26:31.596Z,7.03
2019-05-15T09:29:02.418Z,7.03
2019-05-15T09:31:33.200Z,7.11
2019-05-15T09:34:04.080Z,7.18
2019-05-15T09:36:34.752Z,7.16
2019-05-15T09:39:08.709Z,7.11
2019-05-15T09:41:39.667Z,7.04
2019-05-15T09:44:10.285Z,7.03
2019-05-15T09:46:40.950Z,7.16
2019-05-15T09:49:11.520Z,7.16
2019-05-15T09:51:42.143Z,7.14
2019-05-15T09:54:12.843Z,7.15
2019-05-15T09:56:43.612Z,7.25
2019-05-15T09:59:14.430Z,7.17
2019-05-15T10:01:45.204Z,7.25
2019-05-15T10:04:15.863Z,7.36
2019-05-15T10:06:48.498Z,7.48
2019-05-15T10:09:19.115Z,7.46
2019-05-15T10:11:49.875Z,7.53
2019-05-15T10:14:20.533Z,7.31
2019-05-15T10:16:51.849Z,7.33
2019-05-15T10:19:22.462Z,7.58
2019-05-15T10:21:53.479Z,7.61
2019-05-15T10:24:24.174Z,7.48
2019-05-15T10:26:54.771Z,7.68
2019-05-15T10:29:25.303Z,7.60
2019-05-15T10:31:55.947Z,7.46
2019-05-15T10:34:28.757Z,7.57
2019-05-15T10:36:59.168Z,7.59
2019-05-15T10:39:29.977Z,7.72
2019-05-15T10:42:00.615Z,7.84
2019-05-15T10:44:31.460Z,7.80
2019-05-15T10:47:02.193Z,7.68
2019-05-15T10:49:32.946Z,7.90
2019-05-15T10:52:03.653Z,8.07
2019-05-15T10:54:34.852Z,7.98
2019-05-15T10:57:08.514Z,7.76
2019-05-15T10:59:38.371Z,7.79
2019-05-15T11:02:09.315Z,7.89
2019-05-15T11:04:40.113Z,7.73
2019-05-15T11:07:11.205Z,7.67
2019-05-15T11:09:42.336Z,7.68
2019-05-15T11:12:13.265Z,7.84
2019-05-15T11:14:43.926Z,7.62
2019-05-15T11:17:14.475Z,7.67
2019-05-15T11:19:45.256Z,7.74
2019-05-15T11:22:18.774Z,7.59
2019-05-15T11:24:52.832Z,7.52
2019-05-15T11:27:21.566Z,7.65
2019-05-15T11:29:52.345Z,7.64
2019-05-15T11:32:23.660Z,7.65
2019-05-15T11:34:54.617Z,7.73
2019-05-15T11:37:28.131Z,7.81
2019-05-15T11:39:58.975Z,7.90
2019-05-15T11:42:30.263Z,7.81
2019-05-15T11:45:01.441Z,7.84
2019-05-15T11:47:32.802Z,7.88
2019-05-15T11:50:04.304Z,7.83
2019-05-15T11:52:37.379Z,7.87
2019-05-15T11:55:09.287Z,7.79
2019-05-15T11:57:46.782Z,7.76
2019-05-15T12:00:17.745Z,7.71
2019-05-15T12:02:47.650Z,7.74
2019-05-15T12:05:19.206Z,7.90
2019-05-15T12:07:50.374Z,7.88
2019-05-15T12:10:21.470Z,7.94
2019-05-15T12:12:52.740Z,7.96
2019-05-15T12:15:23.810Z,8.03
2019-05-15T12:17:54.988Z,8.25
2019-05-15T12:20:28.337Z,8.20
2019-05-15T12:22:59.434Z,8.20
2019-05-15T12:25:31.952Z,8.10
2019-05-15T12:28:03.022Z,8.15
2019-05-15T12:30:33.708Z,8.12
2019-05-15T12:33:04.416Z,8.19
2019-05-15T12:35:39.204Z,8.31
2019-05-15T12:38:10.051Z,8.39
2019-05-15T13:01:14.635Z,8.25
2019-05-15T13:03:40.207Z,8.12
2019-05-15T13:06:10.874Z,8.11
2019-05-15T13:08:48.692Z,8.15
2019-05-15T13:11:18.236Z,8.10
2019-05-15T13:13:50.245Z,8.08
2019-05-15T13:16:24.548Z,8.13
2019-05-15T13:18:55.393Z,8.09
2019-05-15T13:21:37.921Z,8.06
2019-05-15T13:24:09.265Z,8.13
2019-05-15T13:26:40.078Z,8.18
2019-05-15T13:29:14.418Z,8.31
2019-05-15T13:31:47.671Z,8.19
2019-05-15T13:34:23.500Z,8.14
2019-05-15T13:36:54.423Z,8.18
2019-05-15T13:39:28.378Z,8.28
2019-05-15T13:42:01.629Z,8.21
2019-05-15T13:44:34.742Z,8.19
2019-05-15T13:47:24.657Z,8.22
2019-05-15T13:50:02.754Z,8.15
2019-05-15T13:52:40.443Z,8.18
2019-05-15T13:55:25.452Z,8.12
2019-05-15T13:57:53.506Z,8.23
2019-05-15T14:00:28.947Z,8.23
2019-05-15T14:03:03.878Z,8.20
2019-05-15T14:05:40.512Z,8.24
2019-05-15T14:08:14.915Z,8.26
2019-05-15T14:10:48.924Z,8.27
2019-05-15T14:13:23.266Z,8.36
2019-05-15T14:15:58.234Z,8.38
2019-05-15T14:18:32.542Z,8.45
2019-05-15T14:21:06.024Z,8.53
2019-05-15T14:23:42.095Z,8.65
2019-05-15T14:26:20.213Z,8.69
2019-05-15T14:28:53.682Z,8.68
2019-05-15T14:31:27.897Z,8.62
2019-05-15T14:34:01.097Z,8.70
2019-05-15T14:36:38.125Z,8.72
2019-05-15T14:39:09.849Z,8.67
2019-05-15T14:41:44.898Z,8.74
2019-05-15T14:44:20.767Z,8.61
2019-05-15T14:46:51.055Z,8.54
2019-05-15T14:49:34.250Z,8.68
2019-05-15T14:52:08.213Z,8.56
2019-05-15T14:54:38.421Z,8.56
2019-05-15T14:57:10.973Z,8.62
2019-05-15T14:59:48.684Z,8.61
2019-05-15T15:02:20.701Z,8.62
2019-05-15T15:04:54.457Z,8.71
2019-05-15T15:07:28.694Z,8.63
2019-05-15T15:10:03.291Z,8.64
2019-05-15T15:12:39.734Z,8.66
2019-05-15T15:15:22.976Z,8.61
2019-05-15T15:18:01.591Z,8.61
2019-05-15T15:20:37.959Z,8.66
2019-05-15T15:23:13.348Z,8.56
2019-05-15T15:25:58.932Z,8.62
2019-05-15T15:28:31.013Z,8.51
2019-05-15T15:31:08.381Z,8.55
2019-05-15T15:33:42.647Z,8.56
2019-05-15T15:36:14.812Z,8.64
2019-05-15T15:38:50.906Z,8.61
2019-05-15T15:41:23.116Z,8.69
2019-05-15T15:43:58.678Z,8.73
2019-05-15T15:46:39.854Z,8.65
2019-05-15T15:49:11.336Z,8.64
2019-05-15T15:51:48.616Z,8.66
2019-05-15T15:54:24.845Z,8.62
2019-05-15T15:56:55.873Z,8.63
2019-05-15T15:59:28.941Z,8.61
2019-05-15T16:02:03.562Z,8.69
2019-05-15T16:04:40.856Z,8.74
2019-05-15T16:07:12.032Z,8.66
2019-05-15T16:09:44.028Z,8.72
2019-05-15T16:12:19.526Z,8.74
2019-05-15T16:14:50.382Z,8.72
2019-05-15T16:17:31.183Z,8.72
2019-05-15T16:20:02.507Z,8.67
2019-05-15T16:22:38.120Z,8.76
2019-05-15T16:25:14.877Z,8.68
2019-05-15T16:27:48.812Z,8.72
2019-05-15T16:30:21.115Z,8.71
2019-05-15T16:33:02.767Z,8.66
2019-05-15T16:35:34.807Z,8.65
2019-05-15T16:38:14.213Z,8.62
2019-05-15T16:40:54.513Z,8.70
2019-05-15T16:43:25.358Z,8.63
2019-05-15T16:46:01.514Z,8.60
2019-05-15T16:48:32.324Z,8.62
2019-05-15T16:51:09.154Z,8.66
2019-05-15T16:53:43.494Z,8.64
2019-05-15T16:56:19.004Z,8.66
2019-05-15T16:58:53.678Z,8.61
2019-05-15T17:01:28.999Z,8.64
2019-05-15T17:04:04.633Z,8.61
2019-05-15T17:06:38.733Z,8.63
2019-05-15T17:09:21.097Z,8.57
2019-05-15T17:11:58.178Z,8.66
2019-05-15T17:14:38.391Z,8.63
2019-05-15T17:17:18.365Z,8.56
2019-05-15T17:19:51.712Z,8.55
2019-05-15T17:22:26.109Z,8.56
2019-05-15T17:25:01.063Z,8.61
2019-05-15T17:27:40.741Z,8.58
2019-05-15T17:30:18.261Z,8.60
2019-05-15T17:32:58.996Z,8.60
2019-05-15T17:35:32.077Z,8.54
2019-05-15T17:38:12.103Z,8.55
2019-05-15T17:40:48.445Z,8.60
2019-05-15T17:43:22.076Z,8.61
2019-05-15T17:45:52.959Z,8.56
2019-05-15T17:48:29.533Z,8.56
2019-05-15T17:51:09.153Z,8.52
2019-05-15T17:53:43.817Z,8.50
2019-05-15T17:56:19.503Z,8.47
2019-05-15T17:58:52.692Z,8.47
2019-05-15T18:01:32.370Z,8.45
2019-05-15T18:04:04.809Z,8.43
2019-05-15T18:06:39.846Z,8.43
2019-05-15T18:09:18.745Z,8.43
2019-05-15T18:11:52.533Z,8.44
2019-05-15T18:14:33.346Z,8.42
2019-05-15T18:17:08.726Z,8.40
2019-05-15T18:19:40.682Z,8.38
2019-05-15T18:22:18.093Z,8.37
2019-05-15T18:24:54.882Z,8.39
2019-05-15T18:27:28.203Z,8.36
2019-05-15T18:30:02.712Z,8.41
2019-05-15T18:32:42.181Z,8.35
2019-05-15T18:35:15.522Z,8.34
2019-05-15T18:37:51.942Z,8.35
2019-05-15T18:40:30.562Z,8.32
2019-05-15T18:43:18.132Z,8.34
2019-05-15T18:45:51.793Z,8.35
2019-05-15T18:48:25.983Z,8.33
2019-05-15T18:50:58.759Z,8.33
2019-05-15T18:53:33.492Z,8.32
2019-05-15T18:56:08.896Z,8.32
2019-05-15T18:58:43.691Z,8.33
2019-05-15T19:01:22.148Z,8.35
2019-05-15T19:03:54.081Z,8.35
2019-05-15T19:06:31.567Z,8.37
2019-05-15T19:09:08.035Z,8.36
2019-05-15T19:11:38.616Z,8.37
2019-05-15T19:14:18.732Z,8.43
2019-05-15T19:16:52.176Z,8.44
2019-05-15T19:19:30.082Z,8.47
2019-05-15T19:22:10.856Z,8.46
2019-05-15T19:24:46.590Z,8.48
2019-05-15T19:27:24.148Z,8.51
2019-05-15T19:29:55.011Z,8.49
2019-05-15T19:32:40.302Z,8.51
2019-05-15T19:35:15.464Z,8.52
2019-05-15T19:37:49.853Z,8.51
2019-05-15T19:40:22.074Z,8.53
2019-05-15T19:42:53.948Z,8.54
2019-05-15T19:45:28.197Z,8.55
2019-05-15T19:48:02.026Z,8.59
2019-05-15T19:50:36.333Z,8.59
2019-05-15T19:53:12.255Z,8.60
2019-05-15T19:55:48.344Z,8.58
2019-05-15T19:58:23.584Z,8.60
2019-05-15T20:00:57.325Z,8.59
2019-05-15T20:03:28.468Z,8.60
2019-05-15T20:06:01.620Z,8.59
2019-05-15T20:08:33.115Z,8.66
2019-05-15T20:11:05.038Z,8.62
2019-05-15T20:13:38.509Z,8.60
2019-05-15T20:16:11.729Z,8.59
2019-05-15T20:18:42.517Z,8.63
2019-05-15T20:21:18.198Z,8.61
2019-05-15T20:23:58.834Z,8.62
2019-05-15T20:26:32.796Z,8.61
2019-05-15T20:29:04.803Z,8.58
2019-05-15T20:31:40.346Z,8.55
2019-05-15T20:34:14.313Z,8.54
2019-05-15T20:36:52.704Z,8.56
2019-05-15T20:39:23.641Z,8.54
2019-05-15T20:41:58.276Z,8.56
2019-05-15T20:44:33.083Z,8.54
2019-05-15T20:47:10.388Z,8.53
2019-05-15T20:49:42.872Z,8.51
2019-05-15T20:52:13.805Z,8.52
2019-05-15T20:54:47.901Z,8.50
2019-05-15T20:57:18.273Z,8.48
2019-05-15T20:59:48.957Z,8.49
2019-05-15T21:02:19.681Z,8.49
2019-05-15T21:04:52.589Z,8.45
2019-05-15T21:07:34.969Z,8.42
2019-05-15T21:09:55.944Z,8.39
2019-05-15T21:12:29.878Z,8.42
2019-05-15T21:15:00.886Z,8.41
2019-05-15T21:17:31.547Z,8.44
2019-05-15T21:20:02.159Z,8.43
2019-05-15T21:22:32.846Z,8.44
2019-05-15T21:25:03.487Z,8.43
2019-05-15T21:27:34.136Z,8.44
2019-05-15T21:30:05.456Z,8.46
2019-05-15T21:32:38.159Z,8.45
2019-05-15T21:35:09.209Z,8.44
2019-05-15T21:37:40.148Z,8.46
2019-05-15T21:40:11.314Z,8.49
2019-05-15T21:42:42.004Z,8.53
2019-05-15T21:45:14.703Z,8.52
2019-05-15T21:47:45.067Z,8.53
2019-05-15T21:50:19.345Z,8.41
2019-05-15T21:52:49.667Z,8.39
2019-05-15T21:55:20.517Z,8.38
2019-05-15T21:57:51.462Z,8.37
2019-05-15T22:00:31.778Z,8.28
2019-05-15T22:03:02.424Z,8.31
2019-05-15T22:05:33.301Z,8.29
2019-05-15T22:08:04.012Z,8.22
2019-05-15T22:10:34.783Z,8.21
2019-05-15T22:13:06.626Z,8.17
2019-05-15T22:15:37.278Z,8.15
2019-05-15T22:18:08.661Z,8.14
2019-05-15T22:20:40.386Z,8.14
2019-05-15T22:23:11.058Z,8.18
2019-05-15T22:25:42.047Z,8.14
2019-05-15T22:28:12.626Z,8.11
2019-05-15T22:30:43.260Z,8.13
2019-05-15T22:33:13.873Z,8.12
2019-05-15T22:35:44.516Z,8.10
2019-05-15T22:38:15.196Z,8.08
2019-05-15T22:40:48.421Z,8.03
2019-05-15T22:43:18.665Z,7.94
2019-05-15T22:45:49.373Z,7.91
2019-05-15T22:48:19.978Z,7.87
2019-05-15T22:50:50.666Z,7.82
2019-05-15T22:53:21.179Z,7.85
2019-05-15T22:55:52.078Z,7.85
2019-05-15T22:58:22.882Z,7.78
2019-05-15T23:00:53.534Z,7.79
2019-05-15T23:03:24.049Z,7.82
2019-05-15T23:05:54.563Z,7.78
2019-05-15T23:08:25.054Z,7.79
2019-05-15T23:10:58.550Z,7.73
2019-05-15T23:13:28.700Z,7.73
2019-05-15T23:15:59.326Z,7.76
2019-05-15T23:18:30.026Z,7.74
2019-05-15T23:21:00.668Z,7.75
2019-05-15T23:23:31.214Z,7.70
2019-05-15T23:26:01.858Z,7.71
2019-05-15T23:28:32.563Z,7.72
2019-05-15T23:31:03.316Z,7.69
2019-05-15T23:33:33.931Z,7.70
2019-05-15T23:36:04.568Z,7.69
2019-05-15T23:38:35.196Z,7.70
2019-05-15T23:41:08.087Z,7.68
2019-05-15T23:43:38.951Z,7.65
2019-05-15T23:46:09.642Z,7.62
2019-05-15T23:48:40.222Z,7.60
2019-05-15T23:51:10.852Z,7.60
2019-05-15T23:53:41.435Z,7.62
2019-05-15T23:56:12.122Z,7.63
2019-05-15T23:58:42.675Z,7.59
